sensor_id;sensor_type;location;lat;lon;timestamp;temperature;humidity
11538;DHT22;50159;49.426;11.182;2022-08-19T00:01:56;20.00;99.90
11538;DHT22;50159;49.426;11.182;2022-08-19T00:04:28;20.00;99.90
11538;DHT22;50159;49.426;11.182;2022-08-19T00:06:58;20.00;99.90
11538;DHT22;50159;49.426;11.182;2022-08-19T00:09:25;20.00;99.90
11538;DHT22;50159;49.426;11.182;2022-08-19T00:11:53;20.00;99.90
11538;DHT22;50159;49.426;11.182;2022-08-19T00:14:23;20.00;99.90
11538;DHT22;50159;49.426;11.182;2022-08-19T00:16:51;20.00;99.90
11538;DHT22;50159;49.426;11.182;2022-08-19T00:19:22;19.90;99.90
11538;DHT22;50159;49.426;11.182;2022-08-19T00:21:50;20.00;99.90
11538;DHT22;50159;49.426;11.182;2022-08-19T00:24:18;20.00;99.90
11538;DHT22;50159;49.426;11.182;2022-08-19T00:26:45;20.00;99.90
11538;DHT22;50159;49.426;11.182;2022-08-19T00:29:15;20.00;99.90
11538;DHT22;50159;49.426;11.182;2022-08-19T00:31:45;20.00;99.90
11538;DHT22;50159;49.426;11.182;2022-08-19T00:34:14;20.10;99.90
11538;DHT22;50159;49.426;11.182;2022-08-19T00:36:42;20.10;99.90
11538;DHT22;50159;49.426;11.182;2022-08-19T00:39:10;20.10;99.90
11538;DHT22;50159;49.426;11.182;2022-08-19T00:41:40;20.10;99.90
11538;DHT22;50159;49.426;11.182;2022-08-19T00:44:10;20.00;99.90
11538;DHT22;50159;49.426;11.182;2022-08-19T00:46:42;20.10;99.90
11538;DHT22;50159;49.426;11.182;2022-08-19T00:49:36;20.00;99.90
11538;DHT22;50159;49.426;11.182;2022-08-19T00:52:21;20.00;99.90
11538;DHT22;50159;49.426;11.182;2022-08-19T00:54:51;20.10;99.90
11538;DHT22;50159;49.426;11.182;2022-08-19T00:57:28;20.10;99.90
11538;DHT22;50159;49.426;11.182;2022-08-19T00:59:59;20.10;99.90
11538;DHT22;50159;49.426;11.182;2022-08-19T01:02:31;20.10;99.90
11538;DHT22;50159;49.426;11.182;2022-08-19T01:05:00;20.10;99.90
11538;DHT22;50159;49.426;11.182;2022-08-19T01:07:31;20.10;99.90
11538;DHT22;50159;49.426;11.182;2022-08-19T01:10:06;20.10;99.90
11538;DHT22;50159;49.426;11.182;2022-08-19T01:12:36;20.10;99.90
11538;DHT22;50159;49.426;11.182;2022-08-19T01:15:08;20.10;99.90
11538;DHT22;50159;49.426;11.182;2022-08-19T01:17:38;20.00;99.90
11538;DHT22;50159;49.426;11.182;2022-08-19T01:20:11;20.00;99.90
11538;DHT22;50159;49.426;11.182;2022-08-19T01:22:45;20.00;99.90
11538;DHT22;50159;49.426;11.182;2022-08-19T01:25:17;20.00;99.90
11538;DHT22;50159;49.426;11.182;2022-08-19T01:27:50;20.00;99.90
11538;DHT22;50159;49.426;11.182;2022-08-19T01:30:26;20.00;99.90
11538;DHT22;50159;49.426;11.182;2022-08-19T01:32:57;20.00;99.90
11538;DHT22;50159;49.426;11.182;2022-08-19T01:35:29;19.90;99.90
11538;DHT22;50159;49.426;11.182;2022-08-19T01:38:03;19.90;99.90
11538;DHT22;50159;49.426;11.182;2022-08-19T01:40:37;19.90;99.90
11538;DHT22;50159;49.426;11.182;2022-08-19T01:43:06;19.80;99.90
11538;DHT22;50159;49.426;11.182;2022-08-19T01:45:34;19.90;99.90
11538;DHT22;50159;49.426;11.182;2022-08-19T01:48:01;19.90;99.90
11538;DHT22;50159;49.426;11.182;2022-08-19T01:50:32;19.90;99.90
11538;DHT22;50159;49.426;11.182;2022-08-19T01:53:01;19.90;99.90
11538;DHT22;50159;49.426;11.182;2022-08-19T01:55:38;19.90;99.90
11538;DHT22;50159;49.426;11.182;2022-08-19T01:58:15;19.90;99.90
11538;DHT22;50159;49.426;11.182;2022-08-19T02:00:47;19.90;99.90
11538;DHT22;50159;49.426;11.182;2022-08-19T02:03:15;19.90;99.90
11538;DHT22;50159;49.426;11.182;2022-08-19T02:05:43;19.80;99.90
11538;DHT22;50159;49.426;11.182;2022-08-19T02:08:10;19.80;99.90
11538;DHT22;50159;49.426;11.182;2022-08-19T02:10:42;19.90;99.90
11538;DHT22;50159;49.426;11.182;2022-08-19T02:13:10;19.90;99.90
11538;DHT22;50159;49.426;11.182;2022-08-19T02:15:38;19.80;99.90
11538;DHT22;50159;49.426;11.182;2022-08-19T02:18:06;19.90;99.90
11538;DHT22;50159;49.426;11.182;2022-08-19T02:20:34;19.80;99.90
11538;DHT22;50159;49.426;11.182;2022-08-19T02:23:02;19.80;99.90
11538;DHT22;50159;49.426;11.182;2022-08-19T02:25:28;19.80;99.90
11538;DHT22;50159;49.426;11.182;2022-08-19T02:27:56;19.90;99.90
11538;DHT22;50159;49.426;11.182;2022-08-19T02:30:26;19.90;99.90
11538;DHT22;50159;49.426;11.182;2022-08-19T02:32:53;19.90;99.90
11538;DHT22;50159;49.426;11.182;2022-08-19T02:35:21;19.90;99.90
11538;DHT22;50159;49.426;11.182;2022-08-19T02:37:48;19.90;99.90
11538;DHT22;50159;49.426;11.182;2022-08-19T02:40:38;19.90;99.90
11538;DHT22;50159;49.426;11.182;2022-08-19T02:43:07;19.90;99.90
11538;DHT22;50159;49.426;11.182;2022-08-19T02:45:37;19.90;99.90
11538;DHT22;50159;49.426;11.182;2022-08-19T02:48:07;19.80;99.90
11538;DHT22;50159;49.426;11.182;2022-08-19T02:50:48;19.80;99.90
11538;DHT22;50159;49.426;11.182;2022-08-19T02:53:23;20.30;99.90
11538;DHT22;50159;49.426;11.182;2022-08-19T02:55:52;19.80;99.90
11538;DHT22;50159;49.426;11.182;2022-08-19T02:58:20;19.80;99.90
11538;DHT22;50159;49.426;11.182;2022-08-19T03:00:54;19.80;99.90
11538;DHT22;50159;49.426;11.182;2022-08-19T03:03:22;19.80;99.90
11538;DHT22;50159;49.426;11.182;2022-08-19T03:05:49;19.80;99.90
11538;DHT22;50159;49.426;11.182;2022-08-19T03:08:23;19.80;99.90
11538;DHT22;50159;49.426;11.182;2022-08-19T03:10:52;19.80;99.90
11538;DHT22;50159;49.426;11.182;2022-08-19T03:13:19;19.80;99.90
11538;DHT22;50159;49.426;11.182;2022-08-19T03:15:47;19.80;99.90
11538;DHT22;50159;49.426;11.182;2022-08-19T03:18:15;19.70;99.90
11538;DHT22;50159;49.426;11.182;2022-08-19T03:20:45;19.70;99.90
11538;DHT22;50159;49.426;11.182;2022-08-19T03:23:16;19.80;99.90
11538;DHT22;50159;49.426;11.182;2022-08-19T03:25:46;19.70;99.90
11538;DHT22;50159;49.426;11.182;2022-08-19T03:28:34;19.70;99.90
11538;DHT22;50159;49.426;11.182;2022-08-19T03:31:04;19.70;99.90
11538;DHT22;50159;49.426;11.182;2022-08-19T03:33:54;19.70;99.90
11538;DHT22;50159;49.426;11.182;2022-08-19T03:36:25;19.70;99.90
11538;DHT22;50159;49.426;11.182;2022-08-19T03:38:58;19.70;99.90
11538;DHT22;50159;49.426;11.182;2022-08-19T03:41:32;19.70;99.90
11538;DHT22;50159;49.426;11.182;2022-08-19T03:44:12;19.60;99.90
11538;DHT22;50159;49.426;11.182;2022-08-19T03:46:45;19.60;99.90
11538;DHT22;50159;49.426;11.182;2022-08-19T03:49:17;19.60;99.90
11538;DHT22;50159;49.426;11.182;2022-08-19T03:51:47;19.50;99.90
11538;DHT22;50159;49.426;11.182;2022-08-19T03:54:16;19.50;99.90
11538;DHT22;50159;49.426;11.182;2022-08-19T03:56:47;19.50;99.90
11538;DHT22;50159;49.426;11.182;2022-08-19T03:59:25;19.50;99.90
11538;DHT22;50159;49.426;11.182;2022-08-19T04:01:59;19.50;99.90
11538;DHT22;50159;49.426;11.182;2022-08-19T04:04:27;19.50;99.90
11538;DHT22;50159;49.426;11.182;2022-08-19T04:06:57;19.50;99.90
11538;DHT22;50159;49.426;11.182;2022-08-19T04:09:25;19.50;99.90
11538;DHT22;50159;49.426;11.182;2022-08-19T04:11:54;19.50;99.90
11538;DHT22;50159;49.426;11.182;2022-08-19T04:14:25;19.50;99.90
11538;DHT22;50159;49.426;11.182;2022-08-19T04:16:56;19.50;99.90
11538;DHT22;50159;49.426;11.182;2022-08-19T04:19:25;19.50;99.90
11538;DHT22;50159;49.426;11.182;2022-08-19T04:21:54;19.50;99.90
11538;DHT22;50159;49.426;11.182;2022-08-19T04:24:22;19.50;99.90
11538;DHT22;50159;49.426;11.182;2022-08-19T04:26:50;19.50;99.90
11538;DHT22;50159;49.426;11.182;2022-08-19T04:29:22;19.50;99.90
11538;DHT22;50159;49.426;11.182;2022-08-19T04:31:53;19.50;99.90
11538;DHT22;50159;49.426;11.182;2022-08-19T04:34:23;19.50;99.90
11538;DHT22;50159;49.426;11.182;2022-08-19T04:36:53;19.50;99.90
11538;DHT22;50159;49.426;11.182;2022-08-19T04:39:23;19.50;99.90
11538;DHT22;50159;49.426;11.182;2022-08-19T04:42:17;19.50;99.90
11538;DHT22;50159;49.426;11.182;2022-08-19T04:45:05;19.50;99.90
11538;DHT22;50159;49.426;11.182;2022-08-19T04:47:39;19.50;99.90
11538;DHT22;50159;49.426;11.182;2022-08-19T04:50:25;19.50;99.90
11538;DHT22;50159;49.426;11.182;2022-08-19T04:52:53;19.50;99.90
11538;DHT22;50159;49.426;11.182;2022-08-19T04:55:21;19.50;99.90
11538;DHT22;50159;49.426;11.182;2022-08-19T04:57:49;19.50;99.90
11538;DHT22;50159;49.426;11.182;2022-08-19T05:00:17;19.60;99.90
11538;DHT22;50159;49.426;11.182;2022-08-19T05:02:44;19.60;99.90
11538;DHT22;50159;49.426;11.182;2022-08-19T05:05:10;19.60;99.90
11538;DHT22;50159;49.426;11.182;2022-08-19T05:07:38;19.60;99.90
11538;DHT22;50159;49.426;11.182;2022-08-19T05:10:06;19.60;99.90
11538;DHT22;50159;49.426;11.182;2022-08-19T05:12:34;19.50;99.90
11538;DHT22;50159;49.426;11.182;2022-08-19T05:15:04;19.50;99.90
11538;DHT22;50159;49.426;11.182;2022-08-19T05:17:34;19.60;99.90
11538;DHT22;50159;49.426;11.182;2022-08-19T05:20:06;19.60;99.90
11538;DHT22;50159;49.426;11.182;2022-08-19T05:22:52;19.70;99.90
11538;DHT22;50159;49.426;11.182;2022-08-19T05:25:20;19.70;99.90
11538;DHT22;50159;49.426;11.182;2022-08-19T05:27:48;19.70;99.90
11538;DHT22;50159;49.426;11.182;2022-08-19T05:30:16;19.80;99.90
11538;DHT22;50159;49.426;11.182;2022-08-19T05:32:43;19.80;99.90
11538;DHT22;50159;49.426;11.182;2022-08-19T05:35:10;19.80;99.90
11538;DHT22;50159;49.426;11.182;2022-08-19T05:37:38;19.80;99.90
11538;DHT22;50159;49.426;11.182;2022-08-19T05:40:07;19.90;99.90
11538;DHT22;50159;49.426;11.182;2022-08-19T05:42:35;19.90;99.90
11538;DHT22;50159;49.426;11.182;2022-08-19T05:45:03;19.90;99.90
11538;DHT22;50159;49.426;11.182;2022-08-19T05:47:30;19.90;99.90
11538;DHT22;50159;49.426;11.182;2022-08-19T05:49:58;19.90;99.90
11538;DHT22;50159;49.426;11.182;2022-08-19T05:52:25;20.00;99.90
11538;DHT22;50159;49.426;11.182;2022-08-19T05:54:55;20.00;99.90
11538;DHT22;50159;49.426;11.182;2022-08-19T05:57:23;20.00;99.90
11538;DHT22;50159;49.426;11.182;2022-08-19T05:59:51;20.00;99.90
11538;DHT22;50159;49.426;11.182;2022-08-19T06:02:27;20.10;99.90
11538;DHT22;50159;49.426;11.182;2022-08-19T06:04:57;20.20;99.90
11538;DHT22;50159;49.426;11.182;2022-08-19T06:07:24;20.20;99.90
11538;DHT22;50159;49.426;11.182;2022-08-19T06:09:51;20.30;99.90
11538;DHT22;50159;49.426;11.182;2022-08-19T06:12:26;20.30;99.90
11538;DHT22;50159;49.426;11.182;2022-08-19T06:14:55;20.30;99.90
11538;DHT22;50159;49.426;11.182;2022-08-19T06:17:27;20.30;99.90
11538;DHT22;50159;49.426;11.182;2022-08-19T06:19:56;20.30;99.90
11538;DHT22;50159;49.426;11.182;2022-08-19T06:22:23;20.30;99.90
11538;DHT22;50159;49.426;11.182;2022-08-19T06:24:50;20.30;99.90
11538;DHT22;50159;49.426;11.182;2022-08-19T06:27:21;20.30;99.90
11538;DHT22;50159;49.426;11.182;2022-08-19T06:29:48;20.40;99.90
11538;DHT22;50159;49.426;11.182;2022-08-19T06:32:17;20.40;99.90
11538;DHT22;50159;49.426;11.182;2022-08-19T06:34:46;20.40;99.90
11538;DHT22;50159;49.426;11.182;2022-08-19T06:37:13;20.50;99.90
11538;DHT22;50159;49.426;11.182;2022-08-19T06:39:44;20.50;99.90
11538;DHT22;50159;49.426;11.182;2022-08-19T06:42:12;20.60;99.90
11538;DHT22;50159;49.426;11.182;2022-08-19T06:44:44;20.60;99.90
11538;DHT22;50159;49.426;11.182;2022-08-19T06:47:20;20.70;99.90
11538;DHT22;50159;49.426;11.182;2022-08-19T06:49:58;20.70;99.90
11538;DHT22;50159;49.426;11.182;2022-08-19T06:52:32;20.70;99.90
11538;DHT22;50159;49.426;11.182;2022-08-19T06:55:03;20.70;99.90
11538;DHT22;50159;49.426;11.182;2022-08-19T06:57:32;20.70;99.90
11538;DHT22;50159;49.426;11.182;2022-08-19T07:00:00;20.60;99.90
11538;DHT22;50159;49.426;11.182;2022-08-19T07:02:27;20.60;99.90
11538;DHT22;50159;49.426;11.182;2022-08-19T07:04:54;20.60;99.90
11538;DHT22;50159;49.426;11.182;2022-08-19T07:07:24;20.60;99.90
11538;DHT22;50159;49.426;11.182;2022-08-19T07:09:51;20.60;99.90
11538;DHT22;50159;49.426;11.182;2022-08-19T07:12:30;20.60;99.90
11538;DHT22;50159;49.426;11.182;2022-08-19T07:15:01;20.50;99.90
11538;DHT22;50159;49.426;11.182;2022-08-19T07:17:30;20.50;99.90
11538;DHT22;50159;49.426;11.182;2022-08-19T07:20:00;20.50;99.90
11538;DHT22;50159;49.426;11.182;2022-08-19T07:22:33;20.50;99.90
11538;DHT22;50159;49.426;11.182;2022-08-19T07:25:03;20.50;99.90
11538;DHT22;50159;49.426;11.182;2022-08-19T07:27:30;20.50;99.90
11538;DHT22;50159;49.426;11.182;2022-08-19T07:29:59;20.50;99.90
11538;DHT22;50159;49.426;11.182;2022-08-19T07:32:26;20.50;99.90
11538;DHT22;50159;49.426;11.182;2022-08-19T07:34:54;20.50;99.90
11538;DHT22;50159;49.426;11.182;2022-08-19T07:37:23;20.50;99.90
11538;DHT22;50159;49.426;11.182;2022-08-19T07:39:58;20.50;99.90
11538;DHT22;50159;49.426;11.182;2022-08-19T07:42:26;20.50;99.90
11538;DHT22;50159;49.426;11.182;2022-08-19T07:44:56;20.50;99.90
11538;DHT22;50159;49.426;11.182;2022-08-19T07:47:23;20.50;99.90
11538;DHT22;50159;49.426;11.182;2022-08-19T07:50:11;20.50;99.90
11538;DHT22;50159;49.426;11.182;2022-08-19T07:52:38;20.50;99.90
11538;DHT22;50159;49.426;11.182;2022-08-19T07:55:08;20.50;99.90
11538;DHT22;50159;49.426;11.182;2022-08-19T07:57:56;20.50;99.90
11538;DHT22;50159;49.426;11.182;2022-08-19T08:00:23;20.50;99.90
11538;DHT22;50159;49.426;11.182;2022-08-19T08:02:51;20.40;99.90
11538;DHT22;50159;49.426;11.182;2022-08-19T08:05:22;20.40;99.90
11538;DHT22;50159;49.426;11.182;2022-08-19T08:08:13;20.50;99.90
11538;DHT22;50159;49.426;11.182;2022-08-19T08:10:59;20.60;99.90
11538;DHT22;50159;49.426;11.182;2022-08-19T08:13:27;20.60;99.90
11538;DHT22;50159;49.426;11.182;2022-08-19T08:15:55;20.70;99.90
11538;DHT22;50159;49.426;11.182;2022-08-19T08:18:23;20.80;99.90
11538;DHT22;50159;49.426;11.182;2022-08-19T08:20:54;20.80;99.90
11538;DHT22;50159;49.426;11.182;2022-08-19T08:23:23;20.70;99.90
11538;DHT22;50159;49.426;11.182;2022-08-19T08:25:57;20.70;99.90
11538;DHT22;50159;49.426;11.182;2022-08-19T08:28:26;20.70;99.90
11538;DHT22;50159;49.426;11.182;2022-08-19T08:30:57;20.70;99.90
11538;DHT22;50159;49.426;11.182;2022-08-19T08:33:26;20.70;99.90
11538;DHT22;50159;49.426;11.182;2022-08-19T08:36:08;20.70;99.90
11538;DHT22;50159;49.426;11.182;2022-08-19T08:38:36;20.70;99.90
11538;DHT22;50159;49.426;11.182;2022-08-19T08:44:13;20.80;99.90
11538;DHT22;50159;49.426;11.182;2022-08-19T08:46:50;20.80;99.90
11538;DHT22;50159;49.426;11.182;2022-08-19T08:49:39;20.80;99.90
11538;DHT22;50159;49.426;11.182;2022-08-19T08:52:39;20.90;99.90
11538;DHT22;50159;49.426;11.182;2022-08-19T08:55:17;21.10;99.90
11538;DHT22;50159;49.426;11.182;2022-08-19T08:57:55;21.10;99.90
11538;DHT22;50159;49.426;11.182;2022-08-19T09:00:38;21.20;99.90
11538;DHT22;50159;49.426;11.182;2022-08-19T09:03:25;21.20;99.90
11538;DHT22;50159;49.426;11.182;2022-08-19T09:06:03;21.20;99.90
11538;DHT22;50159;49.426;11.182;2022-08-19T09:08:50;21.20;99.90
11538;DHT22;50159;49.426;11.182;2022-08-19T09:14:38;21.30;99.90
11538;DHT22;50159;49.426;11.182;2022-08-19T09:17:19;21.40;99.90
11538;DHT22;50159;49.426;11.182;2022-08-19T09:19:56;21.40;99.90
11538;DHT22;50159;49.426;11.182;2022-08-19T09:22:31;21.30;99.90
11538;DHT22;50159;49.426;11.182;2022-08-19T09:24:59;21.30;99.90
11538;DHT22;50159;49.426;11.182;2022-08-19T09:27:27;21.30;99.90
11538;DHT22;50159;49.426;11.182;2022-08-19T09:30:14;21.30;99.90
11538;DHT22;50159;49.426;11.182;2022-08-19T09:32:46;21.30;99.90
11538;DHT22;50159;49.426;11.182;2022-08-19T09:35:20;21.40;99.90
11538;DHT22;50159;49.426;11.182;2022-08-19T09:37:50;21.50;99.90
11538;DHT22;50159;49.426;11.182;2022-08-19T09:40:28;21.50;99.90
11538;DHT22;50159;49.426;11.182;2022-08-19T09:43:01;21.50;99.90
11538;DHT22;50159;49.426;11.182;2022-08-19T09:45:38;21.40;99.90
11538;DHT22;50159;49.426;11.182;2022-08-19T09:48:05;21.40;99.90
11538;DHT22;50159;49.426;11.182;2022-08-19T09:50:32;21.40;99.90
11538;DHT22;50159;49.426;11.182;2022-08-19T09:53:00;21.40;99.90
11538;DHT22;50159;49.426;11.182;2022-08-19T09:55:27;21.30;99.90
11538;DHT22;50159;49.426;11.182;2022-08-19T09:57:59;21.30;99.90
11538;DHT22;50159;49.426;11.182;2022-08-19T10:00:27;21.20;99.90
11538;DHT22;50159;49.426;11.182;2022-08-19T10:02:54;21.10;99.90
11538;DHT22;50159;49.426;11.182;2022-08-19T10:05:22;21.00;99.90
11538;DHT22;50159;49.426;11.182;2022-08-19T10:08:09;20.90;99.90
11538;DHT22;50159;49.426;11.182;2022-08-19T10:10:43;20.90;99.90
11538;DHT22;50159;49.426;11.182;2022-08-19T10:13:16;20.90;99.90
11538;DHT22;50159;49.426;11.182;2022-08-19T10:15:46;20.80;99.90
11538;DHT22;50159;49.426;11.182;2022-08-19T10:18:15;20.80;99.90
11538;DHT22;50159;49.426;11.182;2022-08-19T10:20:47;20.80;99.90
11538;DHT22;50159;49.426;11.182;2022-08-19T10:23:18;20.70;99.90
11538;DHT22;50159;49.426;11.182;2022-08-19T10:25:48;20.70;99.90
11538;DHT22;50159;49.426;11.182;2022-08-19T10:28:16;20.70;99.90
11538;DHT22;50159;49.426;11.182;2022-08-19T10:30:45;20.70;99.90
11538;DHT22;50159;49.426;11.182;2022-08-19T10:33:13;20.70;99.90
11538;DHT22;50159;49.426;11.182;2022-08-19T10:36:05;20.70;99.90
11538;DHT22;50159;49.426;11.182;2022-08-19T10:38:34;20.80;99.90
11538;DHT22;50159;49.426;11.182;2022-08-19T10:41:13;20.70;99.90
11538;DHT22;50159;49.426;11.182;2022-08-19T10:43:43;20.70;99.90
11538;DHT22;50159;49.426;11.182;2022-08-19T10:46:13;20.70;99.90
11538;DHT22;50159;49.426;11.182;2022-08-19T10:48:44;20.70;99.90
11538;DHT22;50159;49.426;11.182;2022-08-19T10:51:12;20.70;99.90
11538;DHT22;50159;49.426;11.182;2022-08-19T10:53:58;20.70;99.90
11538;DHT22;50159;49.426;11.182;2022-08-19T10:56:27;20.60;99.90
11538;DHT22;50159;49.426;11.182;2022-08-19T10:59:14;20.50;99.90
11538;DHT22;50159;49.426;11.182;2022-08-19T11:01:44;20.50;99.90
11538;DHT22;50159;49.426;11.182;2022-08-19T11:04:12;20.50;99.90
11538;DHT22;50159;49.426;11.182;2022-08-19T11:06:40;20.50;99.90
11538;DHT22;50159;49.426;11.182;2022-08-19T11:09:10;20.50;99.90
11538;DHT22;50159;49.426;11.182;2022-08-19T11:11:38;20.50;99.90
11538;DHT22;50159;49.426;11.182;2022-08-19T11:14:13;20.50;99.90
11538;DHT22;50159;49.426;11.182;2022-08-19T11:16:42;20.40;99.90
11538;DHT22;50159;49.426;11.182;2022-08-19T11:19:11;20.40;99.90
11538;DHT22;50159;49.426;11.182;2022-08-19T11:21:43;20.40;99.90
11538;DHT22;50159;49.426;11.182;2022-08-19T11:24:17;20.40;99.90
11538;DHT22;50159;49.426;11.182;2022-08-19T11:26:48;20.30;99.90
11538;DHT22;50159;49.426;11.182;2022-08-19T11:29:18;20.40;99.90
11538;DHT22;50159;49.426;11.182;2022-08-19T11:31:48;20.40;99.90
11538;DHT22;50159;49.426;11.182;2022-08-19T11:34:20;20.40;99.90
11538;DHT22;50159;49.426;11.182;2022-08-19T11:36:50;20.40;99.90
11538;DHT22;50159;49.426;11.182;2022-08-19T11:39:20;20.40;99.90
11538;DHT22;50159;49.426;11.182;2022-08-19T11:41:48;20.40;99.90
11538;DHT22;50159;49.426;11.182;2022-08-19T11:44:15;20.40;99.90
11538;DHT22;50159;49.426;11.182;2022-08-19T11:46:43;20.40;99.90
11538;DHT22;50159;49.426;11.182;2022-08-19T11:49:14;20.40;99.90
11538;DHT22;50159;49.426;11.182;2022-08-19T11:51:50;20.40;99.90
11538;DHT22;50159;49.426;11.182;2022-08-19T11:54:19;20.40;99.90
11538;DHT22;50159;49.426;11.182;2022-08-19T11:56:47;20.30;99.90
11538;DHT22;50159;49.426;11.182;2022-08-19T11:59:15;20.30;99.90
11538;DHT22;50159;49.426;11.182;2022-08-19T12:01:42;20.30;99.90
11538;DHT22;50159;49.426;11.182;2022-08-19T12:04:10;20.40;99.90
11538;DHT22;50159;49.426;11.182;2022-08-19T12:06:39;20.40;99.90
11538;DHT22;50159;49.426;11.182;2022-08-19T12:09:09;20.40;99.90
11538;DHT22;50159;49.426;11.182;2022-08-19T12:11:38;20.40;99.90
11538;DHT22;50159;49.426;11.182;2022-08-19T12:14:10;20.40;99.90
11538;DHT22;50159;49.426;11.182;2022-08-19T12:16:41;20.40;99.90
11538;DHT22;50159;49.426;11.182;2022-08-19T12:19:18;20.50;99.90
11538;DHT22;50159;49.426;11.182;2022-08-19T12:21:49;20.40;99.90
11538;DHT22;50159;49.426;11.182;2022-08-19T12:24:16;20.40;99.90
11538;DHT22;50159;49.426;11.182;2022-08-19T12:26:49;20.40;99.90
11538;DHT22;50159;49.426;11.182;2022-08-19T12:29:20;20.40;99.90
11538;DHT22;50159;49.426;11.182;2022-08-19T12:31:50;20.40;99.90
11538;DHT22;50159;49.426;11.182;2022-08-19T12:34:17;20.40;99.90
11538;DHT22;50159;49.426;11.182;2022-08-19T12:36:46;20.50;99.90
11538;DHT22;50159;49.426;11.182;2022-08-19T12:39:15;20.50;99.90
11538;DHT22;50159;49.426;11.182;2022-08-19T12:41:42;20.60;99.90
11538;DHT22;50159;49.426;11.182;2022-08-19T12:44:19;20.60;99.90
11538;DHT22;50159;49.426;11.182;2022-08-19T12:46:56;20.70;99.90
11538;DHT22;50159;49.426;11.182;2022-08-19T12:49:23;20.70;99.90
11538;DHT22;50159;49.426;11.182;2022-08-19T12:52:11;20.70;99.90
11538;DHT22;50159;49.426;11.182;2022-08-19T12:54:47;20.70;99.90
11538;DHT22;50159;49.426;11.182;2022-08-19T12:57:20;20.70;99.90
11538;DHT22;50159;49.426;11.182;2022-08-19T13:00:13;20.70;99.90
11538;DHT22;50159;49.426;11.182;2022-08-19T13:02:45;20.70;99.90
11538;DHT22;50159;49.426;11.182;2022-08-19T13:05:23;20.70;99.90
11538;DHT22;50159;49.426;11.182;2022-08-19T13:07:53;20.70;99.90
11538;DHT22;50159;49.426;11.182;2022-08-19T13:10:24;20.70;99.90
11538;DHT22;50159;49.426;11.182;2022-08-19T13:12:55;20.80;99.90
11538;DHT22;50159;49.426;11.182;2022-08-19T13:15:23;20.80;99.90
11538;DHT22;50159;49.426;11.182;2022-08-19T13:17:52;20.90;99.90
11538;DHT22;50159;49.426;11.182;2022-08-19T13:20:20;20.90;99.90
11538;DHT22;50159;49.426;11.182;2022-08-19T13:22:48;20.90;99.90
11538;DHT22;50159;49.426;11.182;2022-08-19T13:25:16;20.90;99.90
11538;DHT22;50159;49.426;11.182;2022-08-19T13:27:47;20.90;99.90
11538;DHT22;50159;49.426;11.182;2022-08-19T13:30:17;20.90;99.90
11538;DHT22;50159;49.426;11.182;2022-08-19T13:33:05;20.80;99.90
11538;DHT22;50159;49.426;11.182;2022-08-19T13:38:08;20.90;99.90
11538;DHT22;50159;49.426;11.182;2022-08-19T13:40:38;20.90;99.90
11538;DHT22;50159;49.426;11.182;2022-08-19T13:43:07;20.90;99.90
11538;DHT22;50159;49.426;11.182;2022-08-19T13:45:53;20.80;99.90
11538;DHT22;50159;49.426;11.182;2022-08-19T13:48:24;20.80;99.90
11538;DHT22;50159;49.426;11.182;2022-08-19T13:50:53;20.70;99.90
11538;DHT22;50159;49.426;11.182;2022-08-19T13:53:20;20.70;99.90
11538;DHT22;50159;49.426;11.182;2022-08-19T13:55:47;20.70;99.90
11538;DHT22;50159;49.426;11.182;2022-08-19T13:58:15;20.60;99.90
11538;DHT22;50159;49.426;11.182;2022-08-19T14:00:44;20.60;99.90
11538;DHT22;50159;49.426;11.182;2022-08-19T14:03:12;20.60;99.90
11538;DHT22;50159;49.426;11.182;2022-08-19T14:05:39;20.60;99.90
11538;DHT22;50159;49.426;11.182;2022-08-19T14:08:05;20.60;99.90
11538;DHT22;50159;49.426;11.182;2022-08-19T14:10:33;20.60;99.90
11538;DHT22;50159;49.426;11.182;2022-08-19T14:13:02;20.60;99.90
11538;DHT22;50159;49.426;11.182;2022-08-19T14:15:30;20.60;99.90
11538;DHT22;50159;49.426;11.182;2022-08-19T14:17:57;20.60;99.90
11538;DHT22;50159;49.426;11.182;2022-08-19T14:20:25;20.50;99.90
11538;DHT22;50159;49.426;11.182;2022-08-19T14:22:53;20.50;99.90
11538;DHT22;50159;49.426;11.182;2022-08-19T14:25:26;20.50;99.90
11538;DHT22;50159;49.426;11.182;2022-08-19T14:27:56;20.40;99.90
11538;DHT22;50159;49.426;11.182;2022-08-19T14:30:26;20.40;99.90
11538;DHT22;50159;49.426;11.182;2022-08-19T14:32:56;20.40;99.90
11538;DHT22;50159;49.426;11.182;2022-08-19T14:35:26;20.40;99.90
11538;DHT22;50159;49.426;11.182;2022-08-19T14:37:54;20.30;99.90
11538;DHT22;50159;49.426;11.182;2022-08-19T14:40:24;20.30;99.90
11538;DHT22;50159;49.426;11.182;2022-08-19T14:42:57;20.20;99.90
11538;DHT22;50159;49.426;11.182;2022-08-19T14:45:32;20.10;99.90
11538;DHT22;50159;49.426;11.182;2022-08-19T14:48:03;20.10;99.90
11538;DHT22;50159;49.426;11.182;2022-08-19T14:50:32;20.10;99.90
11538;DHT22;50159;49.426;11.182;2022-08-19T14:53:06;20.00;99.90
11538;DHT22;50159;49.426;11.182;2022-08-19T14:55:44;20.00;99.90
11538;DHT22;50159;49.426;11.182;2022-08-19T14:58:13;20.00;99.90
11538;DHT22;50159;49.426;11.182;2022-08-19T15:00:57;20.00;99.90
11538;DHT22;50159;49.426;11.182;2022-08-19T15:03:25;20.00;99.90
11538;DHT22;50159;49.426;11.182;2022-08-19T15:05:53;20.00;99.90
11538;DHT22;50159;49.426;11.182;2022-08-19T15:08:20;20.00;99.90
11538;DHT22;50159;49.426;11.182;2022-08-19T15:10:48;19.90;99.90
11538;DHT22;50159;49.426;11.182;2022-08-19T15:13:15;19.90;99.90
11538;DHT22;50159;49.426;11.182;2022-08-19T15:15:42;19.90;99.90
11538;DHT22;50159;49.426;11.182;2022-08-19T15:18:09;19.80;99.90
11538;DHT22;50159;49.426;11.182;2022-08-19T15:20:38;19.80;99.90
11538;DHT22;50159;49.426;11.182;2022-08-19T15:23:07;19.80;99.90
11538;DHT22;50159;49.426;11.182;2022-08-19T15:25:34;19.70;99.90
11538;DHT22;50159;49.426;11.182;2022-08-19T15:28:02;19.70;99.90
11538;DHT22;50159;49.426;11.182;2022-08-19T15:30:29;19.70;99.90
11538;DHT22;50159;49.426;11.182;2022-08-19T15:32:57;19.60;99.90
11538;DHT22;50159;49.426;11.182;2022-08-19T15:35:25;19.60;99.90
11538;DHT22;50159;49.426;11.182;2022-08-19T15:37:53;19.60;99.90
11538;DHT22;50159;49.426;11.182;2022-08-19T15:40:23;19.50;99.90
11538;DHT22;50159;49.426;11.182;2022-08-19T15:42:51;19.50;99.90
11538;DHT22;50159;49.426;11.182;2022-08-19T15:45:20;19.50;99.90
11538;DHT22;50159;49.426;11.182;2022-08-19T15:47:48;19.50;99.90
11538;DHT22;50159;49.426;11.182;2022-08-19T15:50:18;19.40;99.90